createdAt,value
2018-01-01T00:01:08.585Z,10.00
2018-01-01T00:04:13.864Z,10.00
2018-01-01T00:07:19.305Z,10.00
2018-01-01T00:10:24.310Z,9.90
2018-01-01T00:13:30.925Z,9.90
2018-01-01T00:16:36.511Z,9.90
2018-01-01T00:19:41.876Z,9.90
2018-01-01T00:22:47.794Z,9.90
2018-01-01T00:25:53.774Z,9.90
2018-01-01T00:28:58.889Z,9.90
2018-01-01T00:32:04.421Z,9.90
2018-01-01T00:35:10.102Z,9.90
2018-01-01T00:38:15.073Z,9.90
2018-01-01T00:41:21.445Z,9.90
2018-01-01T00:44:26.737Z,9.90
2018-01-01T00:47:33.073Z,9.90
2018-01-01T00:50:38.322Z,9.80
2018-01-01T00:53:43.750Z,9.90
2018-01-01T00:56:49.470Z,9.80
2018-01-01T00:59:54.906Z,9.90
2018-01-01T01:03:00.623Z,9.90
2018-01-01T01:06:05.573Z,9.90
2018-01-01T01:09:11.369Z,9.90
2018-01-01T01:12:17.135Z,9.90
2018-01-01T01:15:22.550Z,9.80
2018-01-01T01:18:28.198Z,9.60
2018-01-01T01:21:33.728Z,9.50
2018-01-01T01:24:39.841Z,9.50
2018-01-01T01:27:45.729Z,9.60
2018-01-01T01:30:50.911Z,9.60
2018-01-01T01:33:57.278Z,9.70
2018-01-01T01:37:03.715Z,9.70
2018-01-01T01:40:17.079Z,9.70
2018-01-01T01:43:22.371Z,9.70
2018-01-01T01:46:28.789Z,9.70
2018-01-01T01:49:33.498Z,9.70
2018-01-01T01:52:38.654Z,9.60
2018-01-01T01:55:43.468Z,9.60
2018-01-01T01:58:55.843Z,9.60
2018-01-01T02:02:01.906Z,9.70
2018-01-01T02:05:07.754Z,9.70
2018-01-01T02:08:13.561Z,9.70
2018-01-01T02:11:19.469Z,9.70
2018-01-01T02:14:24.558Z,9.70
2018-01-01T02:17:29.735Z,9.60
2018-01-01T02:20:35.482Z,9.60
2018-01-01T02:23:41.234Z,9.60
2018-01-01T02:26:46.228Z,9.70
2018-01-01T02:29:50.934Z,9.70
2018-01-01T02:32:56.478Z,9.70
2018-01-01T02:36:01.887Z,9.60
2018-01-01T02:39:07.406Z,9.50
2018-01-01T02:42:12.744Z,9.50
2018-01-01T02:45:17.840Z,9.50
2018-01-01T02:48:23.158Z,9.60
2018-01-01T02:51:29.324Z,9.50
2018-01-01T02:54:35.326Z,9.60
2018-01-01T02:57:40.666Z,9.60
2018-01-01T03:00:47.139Z,9.60
2018-01-01T03:03:52.032Z,9.60
2018-01-01T03:06:57.830Z,9.50
2018-01-01T03:10:03.377Z,9.50
2018-01-01T03:13:08.393Z,9.60
2018-01-01T03:16:13.705Z,9.60
2018-01-01T03:19:19.226Z,9.70
2018-01-01T03:22:24.342Z,9.70
2018-01-01T03:25:29.919Z,9.60
2018-01-01T03:28:34.746Z,9.50
2018-01-01T03:31:40.358Z,9.50
2018-01-01T03:34:45.145Z,9.40
2018-01-01T03:37:50.567Z,9.20
2018-01-01T03:40:56.861Z,8.60
2018-01-01T03:44:02.057Z,8.60
2018-01-01T03:47:07.510Z,8.50
2018-01-01T03:50:12.604Z,8.50
2018-01-01T03:53:17.706Z,8.40
2018-01-01T03:56:23.234Z,8.40
2018-01-01T03:59:28.822Z,8.50
2018-01-01T04:02:33.881Z,8.50
2018-01-01T04:05:39.581Z,8.60
2018-01-01T04:08:45.385Z,8.60
2018-01-01T04:11:50.303Z,8.60
2018-01-01T04:14:55.594Z,8.60
2018-01-01T04:18:01.906Z,8.60
2018-01-01T04:21:07.282Z,8.60
2018-01-01T04:24:12.934Z,8.60
2018-01-01T04:27:17.734Z,8.60
2018-01-01T04:30:24.211Z,8.70
2018-01-01T04:33:29.871Z,8.70
2018-01-01T04:36:35.673Z,8.70
2018-01-01T04:39:41.483Z,8.80
2018-01-01T04:42:47.334Z,8.80
2018-01-01T04:45:52.502Z,8.80
2018-01-01T04:48:58.174Z,8.80
2018-01-01T04:52:03.239Z,8.80
2018-01-01T04:55:08.229Z,8.90
2018-01-01T04:58:14.461Z,9.00
2018-01-01T05:01:19.486Z,9.00
2018-01-01T05:04:25.158Z,9.00
2018-01-01T05:07:30.610Z,9.00
2018-01-01T05:10:36.698Z,8.50
2018-01-01T05:13:41.617Z,8.50
2018-01-01T05:16:47.078Z,8.20
2018-01-01T05:19:52.670Z,8.00
2018-01-01T05:22:58.146Z,7.70
2018-01-01T05:26:03.494Z,7.70
2018-01-01T05:29:09.810Z,7.60
2018-01-01T05:32:15.481Z,7.60
2018-01-01T05:35:21.134Z,7.60
2018-01-01T05:38:26.060Z,7.50
2018-01-01T05:41:31.102Z,7.40
2018-01-01T05:44:36.702Z,7.50
2018-01-01T05:47:42.338Z,7.40
2018-01-01T05:50:48.354Z,7.40
2018-01-01T05:53:54.946Z,7.40
2018-01-01T05:57:00.932Z,7.40
2018-01-01T06:00:07.300Z,7.40
2018-01-01T06:03:13.335Z,7.40
2018-01-01T06:06:19.617Z,7.40
2018-01-01T06:09:25.644Z,7.40
2018-01-01T06:12:30.609Z,7.30
2018-01-01T06:15:36.230Z,7.30
2018-01-01T06:18:41.067Z,7.20
2018-01-01T06:21:47.422Z,7.20
2018-01-01T06:24:53.402Z,7.20
2018-01-01T06:27:58.815Z,7.20
2018-01-01T06:31:03.828Z,7.20
2018-01-01T06:34:08.741Z,7.10
2018-01-01T06:37:15.011Z,7.10
2018-01-01T06:40:20.010Z,7.10
2018-01-01T06:43:26.118Z,7.10
2018-01-01T06:46:31.706Z,7.10
2018-01-01T06:49:37.570Z,7.10
2018-01-01T06:52:43.501Z,7.10
2018-01-01T06:55:49.574Z,7.10
2018-01-01T06:58:55.266Z,7.10
2018-01-01T07:02:00.653Z,7.10
2018-01-01T07:05:06.990Z,7.00
2018-01-01T07:08:12.610Z,7.00
2018-01-01T07:11:18.594Z,7.10
2018-01-01T07:14:24.802Z,7.10
2018-01-01T07:17:30.402Z,7.10
2018-01-01T07:20:35.502Z,7.10
2018-01-01T07:23:40.779Z,7.00
2018-01-01T07:26:46.602Z,6.90
2018-01-01T07:29:52.394Z,6.90
2018-01-01T07:32:57.479Z,6.90
2018-01-01T07:36:02.510Z,6.80
2018-01-01T07:39:07.511Z,6.70
2018-01-01T07:42:13.309Z,6.70
2018-01-01T07:45:19.576Z,6.60
2018-01-01T07:48:24.894Z,6.70
2018-01-01T07:51:30.146Z,6.60
2018-01-01T07:54:35.746Z,6.60
2018-01-01T07:57:41.822Z,6.80
2018-01-01T08:00:47.514Z,6.80
2018-01-01T08:03:52.577Z,6.80
2018-01-01T08:06:58.326Z,6.90
2018-01-01T08:10:03.534Z,6.90
2018-01-01T08:13:08.423Z,7.00
2018-01-01T08:16:14.620Z,7.00
2018-01-01T08:19:20.405Z,7.00
2018-01-01T08:22:26.694Z,7.00
2018-01-01T08:25:31.530Z,7.00
2018-01-01T08:28:36.518Z,7.00
2018-01-01T08:31:42.075Z,7.00
2018-01-01T08:34:49.346Z,7.10
2018-01-01T08:37:54.240Z,7.20
2018-01-01T08:40:59.026Z,7.20
2018-01-01T08:44:04.716Z,7.30
2018-01-01T08:47:12.592Z,7.50
2018-01-01T08:50:24.446Z,7.50
2018-01-01T08:53:32.075Z,7.70
2018-01-01T08:56:37.065Z,7.70
2018-01-01T08:59:42.929Z,7.60
2018-01-01T09:02:48.459Z,7.60
2018-01-01T09:05:55.640Z,7.70
2018-01-01T09:09:03.299Z,7.70
2018-01-01T09:12:08.856Z,7.70
2018-01-01T09:15:14.985Z,7.70
2018-01-01T09:18:21.569Z,7.60
2018-01-01T09:21:27.191Z,7.40
2018-01-01T09:24:32.743Z,7.30
2018-01-01T09:27:37.839Z,7.50
2018-01-01T09:30:43.464Z,7.70
2018-01-01T09:33:51.718Z,7.90
2018-01-01T09:36:56.726Z,8.10
2018-01-01T09:40:02.171Z,8.30
2018-01-01T09:43:09.526Z,8.40
2018-01-01T09:46:15.911Z,8.40
2018-01-01T09:49:20.690Z,8.40
2018-01-01T09:52:25.782Z,8.50
2018-01-01T09:55:30.662Z,8.70
2018-01-01T09:58:35.964Z,8.90
2018-01-01T10:01:42.442Z,9.10
2018-01-01T10:04:49.243Z,8.90
2018-01-01T10:07:54.411Z,8.80
2018-01-01T10:10:59.266Z,8.80
2018-01-01T10:14:04.846Z,8.80
2018-01-01T10:17:11.017Z,8.90
2018-01-01T10:20:16.827Z,8.90
2018-01-01T10:23:22.230Z,8.80
2018-01-01T10:26:28.038Z,8.90
2018-01-01T10:29:33.070Z,8.90
2018-01-01T10:32:38.433Z,8.90
2018-01-01T10:35:43.410Z,8.80
2018-01-01T10:38:48.610Z,8.80
2018-01-01T10:41:53.982Z,9.00
2018-01-01T10:45:02.579Z,9.10
2018-01-01T10:48:07.681Z,9.30
2018-01-01T10:51:12.485Z,9.40
2018-01-01T10:54:17.790Z,9.40
2018-01-01T10:57:23.626Z,9.30
2018-01-01T11:00:29.662Z,9.30
2018-01-01T11:03:34.510Z,9.30
2018-01-01T11:06:39.924Z,9.20
2018-01-01T11:09:44.602Z,9.20
2018-01-01T11:12:50.286Z,9.20
2018-01-01T11:15:55.356Z,9.20
2018-01-01T11:19:01.086Z,9.30
2018-01-01T11:22:06.318Z,9.30
2018-01-01T11:25:11.972Z,9.50
2018-01-01T11:28:17.674Z,9.70
2018-01-01T11:31:23.402Z,9.70
2018-01-01T11:34:28.842Z,9.60
2018-01-01T11:37:33.604Z,9.60
2018-01-01T11:40:40.479Z,9.60
2018-01-01T11:43:47.181Z,9.60
2018-01-01T11:46:52.722Z,9.70
2018-01-01T11:49:58.486Z,9.70
2018-01-01T11:53:03.769Z,9.60
2018-01-01T11:56:08.490Z,9.70
2018-01-01T11:59:14.095Z,9.80
2018-01-01T12:02:20.543Z,10.00
2018-01-01T12:05:26.710Z,10.00
2018-01-01T12:08:32.948Z,9.70
2018-01-01T12:11:38.090Z,9.70
2018-01-01T12:14:51.705Z,9.50
2018-01-01T12:18:17.538Z,9.50
2018-01-01T12:21:22.855Z,9.50
2018-01-01T12:24:29.016Z,9.60
2018-01-01T12:27:35.315Z,9.60
2018-01-01T12:30:41.100Z,9.60
2018-01-01T12:33:46.475Z,9.70
2018-01-01T12:36:52.575Z,9.70
2018-01-01T12:39:58.551Z,9.80
2018-01-01T12:43:04.951Z,9.80
2018-01-01T12:46:10.162Z,9.80
2018-01-01T12:49:16.838Z,9.70
2018-01-01T12:52:22.627Z,9.80
2018-01-01T12:55:27.391Z,9.80
2018-01-01T12:58:32.259Z,10.00
2018-01-01T13:01:38.691Z,10.00
2018-01-01T13:04:44.318Z,10.00
2018-01-01T13:07:51.073Z,10.00
2018-01-01T13:10:56.546Z,10.00
2018-01-01T13:14:02.894Z,9.80
2018-01-01T13:17:08.857Z,9.80
2018-01-01T13:20:14.949Z,9.80
2018-01-01T13:23:19.981Z,9.80
2018-01-01T13:26:25.650Z,9.80
2018-01-01T13:29:31.099Z,9.70
2018-01-01T13:32:36.631Z,9.80
2018-01-01T13:35:42.962Z,9.50
2018-01-01T13:38:47.714Z,9.50
2018-01-01T13:41:52.947Z,9.40
2018-01-01T13:44:58.010Z,9.40
2018-01-01T13:48:04.418Z,9.30
2018-01-01T13:51:09.820Z,9.30
2018-01-01T13:54:15.654Z,9.20
2018-01-01T13:57:20.549Z,9.10
2018-01-01T14:00:25.979Z,9.20
2018-01-01T14:03:31.682Z,9.20
2018-01-01T14:06:36.978Z,9.10
2018-01-01T14:09:42.838Z,9.20
2018-01-01T14:12:49.018Z,9.20
2018-01-01T14:15:54.503Z,9.10
2018-01-01T14:19:00.448Z,9.10
2018-01-01T14:22:05.799Z,9.10
2018-01-01T14:25:11.282Z,9.10
2018-01-01T14:28:17.011Z,9.10
2018-01-01T14:31:22.371Z,9.10
2018-01-01T14:34:28.358Z,9.00
2018-01-01T14:37:33.502Z,9.00
2018-01-01T14:40:39.206Z,9.00
2018-01-01T14:43:45.202Z,9.00
2018-01-01T14:46:51.066Z,9.00
2018-01-01T14:49:57.684Z,9.00
2018-01-01T14:53:03.338Z,8.80
2018-01-01T14:56:08.499Z,8.80
2018-01-01T14:59:13.603Z,8.70
2018-01-01T15:02:18.507Z,8.70
2018-01-01T15:05:23.702Z,8.70
2018-01-01T15:08:29.178Z,8.60
2018-01-01T15:11:34.038Z,8.50
2018-01-01T15:14:39.391Z,8.40
2018-01-01T15:17:45.212Z,8.30
2018-01-01T15:20:50.257Z,8.20
2018-01-01T15:23:56.042Z,8.20
2018-01-01T15:27:01.147Z,8.20
2018-01-01T15:30:06.742Z,8.20
2018-01-01T15:33:12.167Z,8.20
2018-01-01T15:36:18.114Z,8.20
2018-01-01T15:39:23.751Z,8.20
2018-01-01T15:42:29.474Z,8.10
2018-01-01T15:45:35.244Z,8.10
2018-01-01T15:48:41.302Z,8.20
2018-01-01T15:51:46.974Z,8.20
2018-01-01T15:54:53.310Z,8.30
2018-01-01T15:57:59.042Z,8.30
2018-01-01T16:01:04.478Z,8.30
2018-01-01T16:04:10.038Z,8.30
2018-01-01T16:07:15.010Z,8.40
2018-01-01T16:10:20.606Z,8.40
2018-01-01T16:13:26.382Z,8.20
2018-01-01T16:16:32.178Z,8.20
2018-01-01T16:19:38.542Z,8.20
2018-01-01T16:22:43.506Z,8.20
2018-01-01T16:25:49.942Z,8.30
2018-01-01T16:28:56.186Z,8.30
2018-01-01T16:32:02.738Z,8.30
2018-01-01T16:35:08.680Z,8.40
2018-01-01T16:38:14.194Z,8.40
2018-01-01T16:41:19.490Z,8.30
2018-01-01T16:44:24.498Z,8.40
2018-01-01T16:47:30.792Z,8.40
2018-01-01T16:50:36.555Z,8.40
2018-01-01T16:53:42.559Z,8.40
2018-01-01T16:56:47.824Z,8.40
2018-01-01T16:59:53.478Z,8.50
2018-01-01T17:02:58.786Z,8.50
2018-01-01T17:06:04.496Z,8.50
2018-01-01T17:09:10.038Z,8.50
2018-01-01T17:12:15.412Z,8.50
2018-01-01T17:15:20.900Z,8.60
2018-01-01T17:18:26.485Z,8.60
2018-01-01T17:21:32.262Z,8.60
2018-01-01T17:24:38.196Z,8.70
2018-01-01T17:27:43.202Z,8.70
2018-01-01T17:30:48.632Z,8.60
2018-01-01T17:33:53.930Z,8.60
2018-01-01T17:36:59.490Z,8.40
2018-01-01T17:40:04.438Z,8.30
2018-01-01T17:43:10.222Z,8.30
2018-01-01T17:46:15.679Z,8.20
2018-01-01T17:49:20.795Z,8.20
2018-01-01T17:52:25.499Z,8.20
2018-01-01T17:55:30.794Z,8.10
2018-01-01T17:58:37.047Z,8.10
2018-01-01T18:01:42.838Z,8.10
2018-01-01T18:04:48.371Z,8.10
2018-01-01T18:07:54.087Z,8.00
2018-01-01T18:10:59.214Z,8.10
2018-01-01T18:14:04.786Z,8.10
2018-01-01T18:17:10.270Z,8.20
2018-01-01T18:20:16.163Z,8.30
2018-01-01T18:23:20.826Z,8.30
2018-01-01T18:26:26.002Z,8.40
2018-01-01T18:29:31.289Z,8.40
2018-01-01T18:32:36.750Z,8.50
2018-01-01T18:35:42.437Z,8.50
2018-01-01T18:38:47.987Z,8.60
2018-01-01T18:41:53.666Z,8.60
2018-01-01T18:44:58.491Z,8.60
2018-01-01T18:48:04.222Z,8.60
2018-01-01T18:51:10.583Z,8.60
2018-01-01T18:54:15.414Z,8.60
2018-01-01T18:57:20.606Z,8.60
2018-01-01T19:00:25.512Z,8.60
2018-01-01T19:03:30.602Z,8.60
2018-01-01T19:06:36.382Z,8.50
2018-01-01T19:09:42.355Z,8.40
2018-01-01T19:12:48.096Z,8.30
2018-01-01T19:15:53.351Z,8.10
2018-01-01T19:18:58.342Z,8.00
2018-01-01T19:22:04.154Z,8.00
2018-01-01T19:25:09.742Z,7.90
2018-01-01T19:28:14.831Z,7.90
2018-01-01T19:31:19.918Z,7.80
2018-01-01T19:34:26.031Z,7.80
2018-01-01T19:37:31.415Z,7.80
2018-01-01T19:40:37.939Z,7.80
2018-01-01T19:43:42.918Z,7.80
2018-01-01T19:46:47.859Z,7.70
2018-01-01T19:49:53.238Z,7.60
2018-01-01T19:53:02.517Z,7.50
2018-01-01T19:56:07.474Z,7.50
2018-01-01T19:59:12.342Z,7.40
2018-01-01T20:02:18.874Z,7.40
2018-01-01T20:05:25.358Z,7.40
2018-01-01T20:08:31.102Z,7.30
2018-01-01T20:11:35.890Z,7.30
2018-01-01T20:14:42.339Z,7.30
2018-01-01T20:17:47.807Z,7.30
2018-01-01T20:20:53.342Z,7.20
2018-01-01T20:23:58.774Z,7.20
2018-01-01T20:27:04.022Z,7.10
2018-01-01T20:30:09.555Z,7.10
2018-01-01T20:33:14.902Z,7.00
2018-01-01T20:36:20.599Z,7.00
2018-01-01T20:39:27.097Z,6.90
2018-01-01T20:42:32.746Z,6.90
2018-01-01T20:45:38.326Z,7.00
2018-01-01T20:48:44.226Z,7.00
2018-01-01T20:51:50.302Z,7.00
2018-01-01T20:54:55.226Z,7.00
2018-01-01T20:58:01.019Z,7.00
2018-01-01T21:01:07.386Z,7.00
2018-01-01T21:04:13.312Z,7.00
2018-01-01T21:07:18.882Z,7.00
2018-01-01T21:10:24.616Z,7.10
2018-01-01T21:13:29.403Z,7.00
2018-01-01T21:16:34.259Z,7.10
2018-01-01T21:19:39.754Z,7.10
2018-01-01T21:22:44.719Z,7.10
2018-01-01T21:25:50.522Z,7.10
2018-01-01T21:28:55.774Z,7.10
2018-01-01T21:32:00.770Z,7.10
2018-01-01T21:35:06.139Z,7.10
2018-01-01T21:38:11.690Z,7.10
2018-01-01T21:41:17.482Z,7.10
2018-01-01T21:44:22.850Z,7.00
2018-01-01T21:47:28.330Z,7.10
2018-01-01T21:50:33.446Z,7.10
2018-01-01T21:53:39.094Z,7.20
2018-01-01T21:56:44.870Z,7.10
2018-01-01T21:59:51.271Z,7.10
2018-01-01T22:02:56.586Z,7.10
2018-01-01T22:06:01.958Z,7.10
2018-01-01T22:09:06.934Z,7.20
2018-01-01T22:12:11.799Z,7.30
2018-01-01T22:15:16.490Z,7.30
2018-01-01T22:18:22.115Z,7.30
2018-01-01T22:21:27.046Z,7.30
2018-01-01T22:24:32.384Z,7.30
2018-01-01T22:27:38.094Z,7.30
2018-01-01T22:30:43.963Z,7.30
2018-01-01T22:33:49.375Z,7.30
2018-01-01T22:36:54.933Z,7.30
2018-01-01T22:40:00.314Z,7.30
2018-01-01T22:43:06.662Z,7.40
2018-01-01T22:46:12.861Z,7.30
2018-01-01T22:49:18.337Z,7.30
2018-01-01T22:52:23.107Z,7.30
2018-01-01T22:55:28.066Z,7.30
2018-01-01T22:58:34.510Z,7.30
2018-01-01T23:01:40.089Z,7.30
2018-01-01T23:04:45.256Z,7.30
2018-01-01T23:07:50.894Z,7.30
2018-01-01T23:10:56.902Z,7.30
2018-01-01T23:14:02.775Z,7.30
2018-01-01T23:17:08.342Z,7.30
2018-01-01T23:20:14.311Z,7.10
2018-01-01T23:23:20.472Z,7.10
2018-01-01T23:26:26.199Z,7.10
2018-01-01T23:29:31.566Z,7.10
2018-01-01T23:32:37.016Z,7.20
2018-01-01T23:35:42.791Z,7.20
2018-01-01T23:38:48.814Z,7.20
2018-01-01T23:41:53.854Z,7.20
2018-01-01T23:44:59.453Z,7.20
2018-01-01T23:48:04.591Z,7.20
2018-01-01T23:51:10.062Z,7.20
2018-01-01T23:54:15.794Z,7.20
2018-01-01T23:57:21.826Z,7.20
